Etusivu
METAR-TAF:

METAR-TAF

Lentoasemat :

Ouargla, Algeria

Leveyspiiri: 31-55N, Pituuspiiri: 005-24E, korkeus merenpinnasta: 141 m

Tämänhetkinen sää

Tämä raportti tehtiin 24 minuuttia sitten, kello 11.00 UTC
Tuuli 4 kn pohjoisesta
Lämpötila 17°C
Kosteus 39%
Ilmanpaine 1021 hPa
Näkyvyys: 8000 m

METAR: DAUU 231100Z 35004KT 8000 NSC 17/03 Q1021

Aika: 12:24 (11:24 UTC)

Sääennuste

Tämä raportti tehtiin 3 tuntia ja 24 minuuttia sitten, kello 08.00 UTC
Ennuste voimassa 23. päivästä klo 09 UTC - 23. päivään klo 18 UTC
Tuuli 6 kn pohjoisen/luoteesta
Näkyvyys: 8000 m
Todennäköisyys 30%
23. päivästä klo 10 UTC - 23. päivään klo 15 UTC
Näkyvyys: 3000 m
usvaa

TAF: DAUU 230800Z 2309/2318 34006KT 8000 NSC PROB30 2310/2315 3000 HZ

Säähavainnot ja -ennusteet yli 4000 lentoasemalta (METAR- ja TAF-raportit).

Käytössä olevat sääasemat on merkitty karttaan keltaisilla ja punaisilla pisteillä.

Aseta hiiri pisteen päälle nähdäksesi sääaseman nimen.

Klikkaa sitten nähdäksesi säähavainnot ja -ennusteet.

Kartan vaihtaminen: klikkaa mustalla rastilla varustettuja vihreitä pisteitä, niin voit zoomata sisään; viivalla varustettua vihreää pistettä, niin voit zoomata ulos tai vihreitä nuolia, niin pääset viereisille kartoille.


METAR-TAF: